sensor_id;sensor_type;location;lat;lon;timestamp;P1;durP1;ratioP1;P2;durP2;ratioP2
10894;SDS011;5500;49.886;8.074;2023-04-30T00:00:33;12.03;;;9.60;;
10894;SDS011;5500;49.886;8.074;2023-04-30T00:03:02;11.40;;;9.37;;
10894;SDS011;5500;49.886;8.074;2023-04-30T00:05:30;10.17;;;9.17;;
10894;SDS011;5500;49.886;8.074;2023-04-30T00:07:57;10.77;;;9.57;;
10894;SDS011;5500;49.886;8.074;2023-04-30T00:10:25;11.50;;;9.80;;
10894;SDS011;5500;49.886;8.074;2023-04-30T00:12:54;12.37;;;10.00;;
10894;SDS011;5500;49.886;8.074;2023-04-30T00:15:22;10.93;;;9.37;;
10894;SDS011;5500;49.886;8.074;2023-04-30T00:17:50;10.03;;;9.00;;
10894;SDS011;5500;49.886;8.074;2023-04-30T00:20:18;12.40;;;10.47;;
10894;SDS011;5500;49.886;8.074;2023-04-30T00:22:46;11.10;;;10.00;;
10894;SDS011;5500;49.886;8.074;2023-04-30T00:25:13;12.20;;;10.30;;
10894;SDS011;5500;49.886;8.074;2023-04-30T00:27:41;10.70;;;9.57;;
10894;SDS011;5500;49.886;8.074;2023-04-30T00:30:11;11.87;;;10.63;;
10894;SDS011;5500;49.886;8.074;2023-04-30T00:32:39;11.00;;;9.93;;
10894;SDS011;5500;49.886;8.074;2023-04-30T00:35:07;11.47;;;9.63;;
10894;SDS011;5500;49.886;8.074;2023-04-30T00:37:36;12.27;;;10.23;;
10894;SDS011;5500;49.886;8.074;2023-04-30T00:40:04;14.10;;;10.20;;
10894;SDS011;5500;49.886;8.074;2023-04-30T00:42:32;11.93;;;10.80;;
10894;SDS011;5500;49.886;8.074;2023-04-30T00:45:00;12.40;;;10.33;;
10894;SDS011;5500;49.886;8.074;2023-04-30T00:47:29;14.60;;;11.37;;
10894;SDS011;5500;49.886;8.074;2023-04-30T00:49:57;13.10;;;11.63;;
10894;SDS011;5500;49.886;8.074;2023-04-30T00:52:25;13.30;;;11.67;;
10894;SDS011;5500;49.886;8.074;2023-04-30T00:54:53;12.93;;;11.60;;
10894;SDS011;5500;49.886;8.074;2023-04-30T00:57:20;11.40;;;10.20;;
10894;SDS011;5500;49.886;8.074;2023-04-30T00:59:49;12.23;;;11.00;;
10894;SDS011;5500;49.886;8.074;2023-04-30T01:02:17;12.93;;;11.70;;
10894;SDS011;5500;49.886;8.074;2023-04-30T01:04:46;12.20;;;11.10;;
10894;SDS011;5500;49.886;8.074;2023-04-30T01:07:14;12.83;;;11.63;;
10894;SDS011;5500;49.886;8.074;2023-04-30T01:09:41;15.40;;;11.07;;
10894;SDS011;5500;49.886;8.074;2023-04-30T01:12:09;11.70;;;10.60;;
10894;SDS011;5500;49.886;8.074;2023-04-30T01:14:42;11.33;;;10.17;;
10894;SDS011;5500;49.886;8.074;2023-04-30T01:17:16;12.37;;;10.67;;
10894;SDS011;5500;49.886;8.074;2023-04-30T01:19:48;12.73;;;11.30;;
10894;SDS011;5500;49.886;8.074;2023-04-30T01:22:21;12.33;;;11.13;;
10894;SDS011;5500;49.886;8.074;2023-04-30T01:25:00;13.00;;;11.37;;
10894;SDS011;5500;49.886;8.074;2023-04-30T01:27:54;13.20;;;11.90;;
10894;SDS011;5500;49.886;8.074;2023-04-30T01:30:29;12.17;;;10.97;;
10894;SDS011;5500;49.886;8.074;2023-04-30T01:32:57;12.97;;;11.63;;
10894;SDS011;5500;49.886;8.074;2023-04-30T01:35:30;15.37;;;11.80;;
10894;SDS011;5500;49.886;8.074;2023-04-30T01:38:08;13.60;;;12.20;;
10894;SDS011;5500;49.886;8.074;2023-04-30T01:40:40;13.30;;;11.90;;
10894;SDS011;5500;49.886;8.074;2023-04-30T01:43:14;13.70;;;12.13;;
10894;SDS011;5500;49.886;8.074;2023-04-30T01:45:49;15.43;;;13.20;;
10894;SDS011;5500;49.886;8.074;2023-04-30T01:48:26;12.83;;;11.53;;
10894;SDS011;5500;49.886;8.074;2023-04-30T01:51:01;12.80;;;11.37;;
10894;SDS011;5500;49.886;8.074;2023-04-30T01:53:37;13.00;;;11.67;;
10894;SDS011;5500;49.886;8.074;2023-04-30T01:56:08;13.17;;;11.70;;
10894;SDS011;5500;49.886;8.074;2023-04-30T01:58:39;13.60;;;11.87;;
10894;SDS011;5500;49.886;8.074;2023-04-30T02:01:06;12.97;;;11.77;;
10894;SDS011;5500;49.886;8.074;2023-04-30T02:03:34;13.23;;;12.03;;
10894;SDS011;5500;49.886;8.074;2023-04-30T02:06:02;13.47;;;12.07;;
10894;SDS011;5500;49.886;8.074;2023-04-30T02:08:30;14.10;;;12.20;;
10894;SDS011;5500;49.886;8.074;2023-04-30T02:10:58;13.87;;;11.87;;
10894;SDS011;5500;49.886;8.074;2023-04-30T02:13:25;14.13;;;11.43;;
10894;SDS011;5500;49.886;8.074;2023-04-30T02:15:54;13.97;;;12.27;;
10894;SDS011;5500;49.886;8.074;2023-04-30T02:18:22;15.07;;;12.23;;
10894;SDS011;5500;49.886;8.074;2023-04-30T02:20:50;14.07;;;12.43;;
10894;SDS011;5500;49.886;8.074;2023-04-30T02:23:17;14.10;;;12.70;;
10894;SDS011;5500;49.886;8.074;2023-04-30T02:25:45;14.37;;;12.87;;
10894;SDS011;5500;49.886;8.074;2023-04-30T02:28:12;17.43;;;14.30;;
10894;SDS011;5500;49.886;8.074;2023-04-30T02:30:40;14.17;;;12.67;;
10894;SDS011;5500;49.886;8.074;2023-04-30T02:33:09;17.30;;;13.67;;
10894;SDS011;5500;49.886;8.074;2023-04-30T02:35:38;17.83;;;13.77;;
10894;SDS011;5500;49.886;8.074;2023-04-30T02:38:06;14.53;;;13.13;;
10894;SDS011;5500;49.886;8.074;2023-04-30T02:40:35;16.07;;;14.37;;
10894;SDS011;5500;49.886;8.074;2023-04-30T02:43:02;16.40;;;14.10;;
10894;SDS011;5500;49.886;8.074;2023-04-30T02:45:31;15.40;;;13.83;;
10894;SDS011;5500;49.886;8.074;2023-04-30T02:47:59;15.37;;;13.87;;
10894;SDS011;5500;49.886;8.074;2023-04-30T02:50:28;14.93;;;13.30;;
10894;SDS011;5500;49.886;8.074;2023-04-30T02:52:56;14.90;;;13.40;;
10894;SDS011;5500;49.886;8.074;2023-04-30T02:55:23;16.33;;;13.53;;
10894;SDS011;5500;49.886;8.074;2023-04-30T02:57:51;14.60;;;13.10;;
10894;SDS011;5500;49.886;8.074;2023-04-30T03:00:19;15.50;;;12.47;;
10894;SDS011;5500;49.886;8.074;2023-04-30T03:02:47;14.83;;;13.23;;
10894;SDS011;5500;49.886;8.074;2023-04-30T03:05:14;16.57;;;12.90;;
10894;SDS011;5500;49.886;8.074;2023-04-30T03:07:43;14.83;;;13.30;;
10894;SDS011;5500;49.886;8.074;2023-04-30T03:10:11;13.87;;;12.50;;
10894;SDS011;5500;49.886;8.074;2023-04-30T03:12:39;15.10;;;13.20;;
10894;SDS011;5500;49.886;8.074;2023-04-30T03:15:07;19.53;;;13.73;;
10894;SDS011;5500;49.886;8.074;2023-04-30T03:17:35;18.70;;;13.70;;
10894;SDS011;5500;49.886;8.074;2023-04-30T03:20:03;15.83;;;13.70;;
10894;SDS011;5500;49.886;8.074;2023-04-30T03:22:32;14.33;;;12.43;;
10894;SDS011;5500;49.886;8.074;2023-04-30T03:25:01;14.30;;;12.87;;
10894;SDS011;5500;49.886;8.074;2023-04-30T03:27:28;15.87;;;14.17;;
10894;SDS011;5500;49.886;8.074;2023-04-30T03:29:56;16.20;;;13.53;;
10894;SDS011;5500;49.886;8.074;2023-04-30T03:32:24;14.90;;;13.30;;
10894;SDS011;5500;49.886;8.074;2023-04-30T03:34:52;15.37;;;13.77;;
10894;SDS011;5500;49.886;8.074;2023-04-30T03:37:19;15.07;;;13.47;;
10894;SDS011;5500;49.886;8.074;2023-04-30T03:39:47;14.63;;;13.33;;
10894;SDS011;5500;49.886;8.074;2023-04-30T03:42:16;17.07;;;13.40;;
10894;SDS011;5500;49.886;8.074;2023-04-30T03:44:43;18.13;;;15.03;;
10894;SDS011;5500;49.886;8.074;2023-04-30T03:47:11;18.17;;;13.50;;
10894;SDS011;5500;49.886;8.074;2023-04-30T03:49:39;16.30;;;13.37;;
10894;SDS011;5500;49.886;8.074;2023-04-30T03:52:07;15.07;;;13.47;;
10894;SDS011;5500;49.886;8.074;2023-04-30T03:54:34;15.37;;;13.50;;
10894;SDS011;5500;49.886;8.074;2023-04-30T03:57:02;17.70;;;13.17;;
10894;SDS011;5500;49.886;8.074;2023-04-30T03:59:32;20.13;;;14.30;;
10894;SDS011;5500;49.886;8.074;2023-04-30T04:01:59;15.73;;;14.10;;
10894;SDS011;5500;49.886;8.074;2023-04-30T04:04:27;15.77;;;14.07;;
10894;SDS011;5500;49.886;8.074;2023-04-30T04:06:55;17.20;;;14.97;;
10894;SDS011;5500;49.886;8.074;2023-04-30T04:09:23;15.77;;;13.57;;
10894;SDS011;5500;49.886;8.074;2023-04-30T04:11:50;16.27;;;13.67;;
10894;SDS011;5500;49.886;8.074;2023-04-30T04:14:18;15.33;;;13.53;;
10894;SDS011;5500;49.886;8.074;2023-04-30T04:16:47;15.07;;;13.47;;
10894;SDS011;5500;49.886;8.074;2023-04-30T04:19:14;15.83;;;13.83;;
10894;SDS011;5500;49.886;8.074;2023-04-30T04:21:42;16.97;;;14.30;;
10894;SDS011;5500;49.886;8.074;2023-04-30T04:24:10;18.40;;;14.97;;
10894;SDS011;5500;49.886;8.074;2023-04-30T04:26:37;15.87;;;14.37;;
10894;SDS011;5500;49.886;8.074;2023-04-30T04:29:05;18.20;;;15.37;;
10894;SDS011;5500;49.886;8.074;2023-04-30T04:31:33;16.33;;;14.63;;
10894;SDS011;5500;49.886;8.074;2023-04-30T04:34:03;20.87;;;14.80;;
10894;SDS011;5500;49.886;8.074;2023-04-30T04:36:31;19.30;;;15.83;;
10894;SDS011;5500;49.886;8.074;2023-04-30T04:38:59;16.93;;;15.23;;
10894;SDS011;5500;49.886;8.074;2023-04-30T04:41:27;16.10;;;14.33;;
10894;SDS011;5500;49.886;8.074;2023-04-30T04:43:55;18.70;;;14.43;;
10894;SDS011;5500;49.886;8.074;2023-04-30T04:46:23;16.80;;;14.53;;
10894;SDS011;5500;49.886;8.074;2023-04-30T04:48:51;16.27;;;14.67;;
10894;SDS011;5500;49.886;8.074;2023-04-30T04:51:20;16.80;;;15.10;;
10894;SDS011;5500;49.886;8.074;2023-04-30T04:53:48;17.17;;;14.77;;
10894;SDS011;5500;49.886;8.074;2023-04-30T04:56:16;17.57;;;15.27;;
10894;SDS011;5500;49.886;8.074;2023-04-30T04:58:44;17.73;;;15.13;;
10894;SDS011;5500;49.886;8.074;2023-04-30T05:01:11;18.67;;;15.60;;
10894;SDS011;5500;49.886;8.074;2023-04-30T05:03:39;17.77;;;15.83;;
10894;SDS011;5500;49.886;8.074;2023-04-30T05:06:07;19.90;;;14.70;;
10894;SDS011;5500;49.886;8.074;2023-04-30T05:08:36;17.70;;;15.20;;
10894;SDS011;5500;49.886;8.074;2023-04-30T05:11:04;17.23;;;14.70;;
10894;SDS011;5500;49.886;8.074;2023-04-30T05:13:31;17.27;;;14.60;;
10894;SDS011;5500;49.886;8.074;2023-04-30T05:15:59;16.03;;;14.33;;
10894;SDS011;5500;49.886;8.074;2023-04-30T05:18:26;16.10;;;14.50;;
10894;SDS011;5500;49.886;8.074;2023-04-30T05:20:54;18.80;;;15.20;;
10894;SDS011;5500;49.886;8.074;2023-04-30T05:23:22;15.73;;;14.13;;
10894;SDS011;5500;49.886;8.074;2023-04-30T05:25:51;16.77;;;14.37;;
10894;SDS011;5500;49.886;8.074;2023-04-30T05:28:20;16.00;;;13.90;;
10894;SDS011;5500;49.886;8.074;2023-04-30T05:30:47;18.40;;;14.03;;
10894;SDS011;5500;49.886;8.074;2023-04-30T05:33:15;18.53;;;13.73;;
10894;SDS011;5500;49.886;8.074;2023-04-30T05:35:43;17.60;;;12.57;;
10894;SDS011;5500;49.886;8.074;2023-04-30T05:38:10;17.10;;;13.87;;
10894;SDS011;5500;49.886;8.074;2023-04-30T05:40:39;17.97;;;12.40;;
10894;SDS011;5500;49.886;8.074;2023-04-30T05:43:08;17.90;;;12.60;;
10894;SDS011;5500;49.886;8.074;2023-04-30T05:45:35;13.23;;;11.93;;
10894;SDS011;5500;49.886;8.074;2023-04-30T05:48:03;13.60;;;11.93;;
10894;SDS011;5500;49.886;8.074;2023-04-30T05:50:31;14.40;;;12.93;;
10894;SDS011;5500;49.886;8.074;2023-04-30T05:52:59;12.80;;;11.40;;
10894;SDS011;5500;49.886;8.074;2023-04-30T05:55:26;15.07;;;10.83;;
10894;SDS011;5500;49.886;8.074;2023-04-30T05:57:54;12.07;;;10.70;;
10894;SDS011;5500;49.886;8.074;2023-04-30T06:00:23;14.00;;;11.03;;
10894;SDS011;5500;49.886;8.074;2023-04-30T06:02:51;11.53;;;10.33;;
10894;SDS011;5500;49.886;8.074;2023-04-30T06:05:19;11.53;;;10.33;;
10894;SDS011;5500;49.886;8.074;2023-04-30T06:07:47;11.00;;;9.90;;
10894;SDS011;5500;49.886;8.074;2023-04-30T06:10:15;14.30;;;10.77;;
10894;SDS011;5500;49.886;8.074;2023-04-30T06:12:42;11.13;;;9.90;;
10894;SDS011;5500;49.886;8.074;2023-04-30T06:15:10;11.17;;;9.97;;
10894;SDS011;5500;49.886;8.074;2023-04-30T06:17:39;13.87;;;10.27;;
10894;SDS011;5500;49.886;8.074;2023-04-30T06:20:07;10.80;;;9.80;;
10894;SDS011;5500;49.886;8.074;2023-04-30T06:22:35;10.97;;;9.40;;
10894;SDS011;5500;49.886;8.074;2023-04-30T06:25:03;10.37;;;8.37;;
10894;SDS011;5500;49.886;8.074;2023-04-30T06:27:31;9.53;;;8.30;;
10894;SDS011;5500;49.886;8.074;2023-04-30T06:29:59;12.50;;;8.87;;
10894;SDS011;5500;49.886;8.074;2023-04-30T06:32:27;11.37;;;9.30;;
10894;SDS011;5500;49.886;8.074;2023-04-30T06:34:56;9.67;;;8.40;;
10894;SDS011;5500;49.886;8.074;2023-04-30T06:37:23;9.90;;;8.57;;
10894;SDS011;5500;49.886;8.074;2023-04-30T06:39:51;10.70;;;8.23;;
10894;SDS011;5500;49.886;8.074;2023-04-30T06:42:19;11.87;;;8.47;;
10894;SDS011;5500;49.886;8.074;2023-04-30T06:44:47;9.70;;;8.30;;
10894;SDS011;5500;49.886;8.074;2023-04-30T06:47:14;10.20;;;8.23;;
10894;SDS011;5500;49.886;8.074;2023-04-30T06:49:42;8.87;;;7.97;;
10894;SDS011;5500;49.886;8.074;2023-04-30T06:52:11;8.77;;;7.83;;
10894;SDS011;5500;49.886;8.074;2023-04-30T06:54:39;10.93;;;7.90;;
10894;SDS011;5500;49.886;8.074;2023-04-30T06:57:08;11.13;;;8.50;;
10894;SDS011;5500;49.886;8.074;2023-04-30T06:59:36;12.73;;;9.10;;
10894;SDS011;5500;49.886;8.074;2023-04-30T07:02:04;9.23;;;7.60;;
10894;SDS011;5500;49.886;8.074;2023-04-30T07:04:32;8.90;;;7.90;;
10894;SDS011;5500;49.886;8.074;2023-04-30T07:07:00;9.93;;;8.03;;
10894;SDS011;5500;49.886;8.074;2023-04-30T07:09:29;12.13;;;8.43;;
10894;SDS011;5500;49.886;8.074;2023-04-30T07:11:57;9.97;;;8.60;;
10894;SDS011;5500;49.886;8.074;2023-04-30T07:14:25;10.33;;;8.23;;
10894;SDS011;5500;49.886;8.074;2023-04-30T07:16:52;9.30;;;8.33;;
10894;SDS011;5500;49.886;8.074;2023-04-30T07:19:20;10.23;;;7.80;;
10894;SDS011;5500;49.886;8.074;2023-04-30T07:21:48;10.50;;;8.07;;
10894;SDS011;5500;49.886;8.074;2023-04-30T07:24:16;9.63;;;7.90;;
10894;SDS011;5500;49.886;8.074;2023-04-30T07:26:45;9.93;;;7.83;;
10894;SDS011;5500;49.886;8.074;2023-04-30T07:29:12;8.90;;;7.43;;
10894;SDS011;5500;49.886;8.074;2023-04-30T07:31:40;8.43;;;7.40;;
10894;SDS011;5500;49.886;8.074;2023-04-30T07:34:08;8.30;;;7.43;;
10894;SDS011;5500;49.886;8.074;2023-04-30T07:36:36;10.07;;;7.30;;
10894;SDS011;5500;49.886;8.074;2023-04-30T07:39:04;8.73;;;7.80;;
10894;SDS011;5500;49.886;8.074;2023-04-30T07:41:33;8.63;;;7.43;;
10894;SDS011;5500;49.886;8.074;2023-04-30T07:44:02;7.77;;;6.97;;
10894;SDS011;5500;49.886;8.074;2023-04-30T07:46:29;10.10;;;7.40;;
10894;SDS011;5500;49.886;8.074;2023-04-30T07:48:57;8.90;;;7.73;;
10894;SDS011;5500;49.886;8.074;2023-04-30T07:51:25;7.77;;;6.83;;
10894;SDS011;5500;49.886;8.074;2023-04-30T07:53:53;8.10;;;7.30;;
10894;SDS011;5500;49.886;8.074;2023-04-30T07:56:20;8.10;;;7.30;;
10894;SDS011;5500;49.886;8.074;2023-04-30T07:58:48;8.00;;;7.10;;
10894;SDS011;5500;49.886;8.074;2023-04-30T08:01:17;9.77;;;7.70;;
10894;SDS011;5500;49.886;8.074;2023-04-30T08:03:44;8.60;;;6.33;;
10894;SDS011;5500;49.886;8.074;2023-04-30T08:06:12;8.93;;;6.87;;
10894;SDS011;5500;49.886;8.074;2023-04-30T08:08:40;7.43;;;6.67;;
10894;SDS011;5500;49.886;8.074;2023-04-30T08:11:07;7.43;;;6.00;;
10894;SDS011;5500;49.886;8.074;2023-04-30T08:13:35;7.73;;;5.97;;
10894;SDS011;5500;49.886;8.074;2023-04-30T08:16:03;6.57;;;5.73;;
10894;SDS011;5500;49.886;8.074;2023-04-30T08:18:32;9.97;;;6.40;;
10894;SDS011;5500;49.886;8.074;2023-04-30T08:20:59;7.37;;;5.73;;
10894;SDS011;5500;49.886;8.074;2023-04-30T08:23:27;6.50;;;5.90;;
10894;SDS011;5500;49.886;8.074;2023-04-30T08:25:54;7.93;;;5.93;;
10894;SDS011;5500;49.886;8.074;2023-04-30T08:28:22;6.77;;;6.17;;
10894;SDS011;5500;49.886;8.074;2023-04-30T08:30:50;16.53;;;6.43;;
10894;SDS011;5500;49.886;8.074;2023-04-30T08:33:17;5.90;;;5.40;;
10894;SDS011;5500;49.886;8.074;2023-04-30T08:35:46;5.70;;;5.00;;
10894;SDS011;5500;49.886;8.074;2023-04-30T08:38:14;7.03;;;5.53;;
10894;SDS011;5500;49.886;8.074;2023-04-30T08:40:42;5.23;;;4.73;;
10894;SDS011;5500;49.886;8.074;2023-04-30T08:43:17;6.27;;;5.60;;
10894;SDS011;5500;49.886;8.074;2023-04-30T08:45:45;6.23;;;5.63;;
10894;SDS011;5500;49.886;8.074;2023-04-30T08:48:14;5.30;;;4.83;;
10894;SDS011;5500;49.886;8.074;2023-04-30T08:50:42;5.57;;;5.07;;
10894;SDS011;5500;49.886;8.074;2023-04-30T08:53:11;5.47;;;4.80;;
10894;SDS011;5500;49.886;8.074;2023-04-30T08:55:40;6.00;;;5.07;;
10894;SDS011;5500;49.886;8.074;2023-04-30T08:58:08;6.17;;;4.80;;
10894;SDS011;5500;49.886;8.074;2023-04-30T09:00:36;6.30;;;5.37;;
10894;SDS011;5500;49.886;8.074;2023-04-30T09:03:04;5.63;;;5.03;;
10894;SDS011;5500;49.886;8.074;2023-04-30T09:05:33;6.23;;;5.13;;
10894;SDS011;5500;49.886;8.074;2023-04-30T09:08:01;5.00;;;4.60;;
10894;SDS011;5500;49.886;8.074;2023-04-30T09:10:32;5.77;;;5.17;;
10894;SDS011;5500;49.886;8.074;2023-04-30T09:13:00;7.07;;;4.93;;
10894;SDS011;5500;49.886;8.074;2023-04-30T09:15:29;4.30;;;3.83;;
10894;SDS011;5500;49.886;8.074;2023-04-30T09:18:07;5.47;;;4.77;;
10894;SDS011;5500;49.886;8.074;2023-04-30T09:20:37;5.07;;;4.10;;
10894;SDS011;5500;49.886;8.074;2023-04-30T09:23:05;4.33;;;3.93;;
10894;SDS011;5500;49.886;8.074;2023-04-30T09:25:38;4.57;;;3.73;;
10894;SDS011;5500;49.886;8.074;2023-04-30T09:28:07;3.83;;;3.43;;
10894;SDS011;5500;49.886;8.074;2023-04-30T09:30:36;3.93;;;3.63;;
10894;SDS011;5500;49.886;8.074;2023-04-30T09:33:04;4.73;;;3.87;;
10894;SDS011;5500;49.886;8.074;2023-04-30T09:35:37;4.50;;;4.10;;
10894;SDS011;5500;49.886;8.074;2023-04-30T09:38:06;6.07;;;3.60;;
10894;SDS011;5500;49.886;8.074;2023-04-30T09:40:34;5.57;;;3.87;;
10894;SDS011;5500;49.886;8.074;2023-04-30T09:43:04;3.50;;;3.23;;
10894;SDS011;5500;49.886;8.074;2023-04-30T09:48:20;7.17;;;3.67;;
10894;SDS011;5500;49.886;8.074;2023-04-30T09:50:48;3.33;;;3.00;;
10894;SDS011;5500;49.886;8.074;2023-04-30T09:53:16;4.47;;;3.23;;
10894;SDS011;5500;49.886;8.074;2023-04-30T09:55:45;3.43;;;2.80;;
10894;SDS011;5500;49.886;8.074;2023-04-30T09:58:15;3.60;;;3.30;;
10894;SDS011;5500;49.886;8.074;2023-04-30T10:00:44;4.47;;;4.00;;
10894;SDS011;5500;49.886;8.074;2023-04-30T10:03:13;4.40;;;3.00;;
10894;SDS011;5500;49.886;8.074;2023-04-30T10:05:42;5.27;;;3.20;;
10894;SDS011;5500;49.886;8.074;2023-04-30T10:08:12;5.10;;;3.47;;
10894;SDS011;5500;49.886;8.074;2023-04-30T10:10:42;3.27;;;2.73;;
10894;SDS011;5500;49.886;8.074;2023-04-30T10:13:13;3.30;;;2.53;;
10894;SDS011;5500;49.886;8.074;2023-04-30T10:15:44;2.80;;;2.60;;
10894;SDS011;5500;49.886;8.074;2023-04-30T10:18:16;3.23;;;2.83;;
10894;SDS011;5500;49.886;8.074;2023-04-30T10:20:46;3.40;;;3.00;;
10894;SDS011;5500;49.886;8.074;2023-04-30T10:23:15;4.80;;;3.23;;
10894;SDS011;5500;49.886;8.074;2023-04-30T10:25:43;4.83;;;3.13;;
10894;SDS011;5500;49.886;8.074;2023-04-30T10:28:11;3.10;;;2.60;;
10894;SDS011;5500;49.886;8.074;2023-04-30T10:30:41;3.50;;;3.20;;
10894;SDS011;5500;49.886;8.074;2023-04-30T10:33:12;3.27;;;2.83;;
10894;SDS011;5500;49.886;8.074;2023-04-30T10:35:45;3.50;;;2.20;;
10894;SDS011;5500;49.886;8.074;2023-04-30T10:38:17;3.90;;;3.30;;
10894;SDS011;5500;49.886;8.074;2023-04-30T10:40:48;3.80;;;2.63;;
10894;SDS011;5500;49.886;8.074;2023-04-30T10:43:16;2.87;;;2.67;;
10894;SDS011;5500;49.886;8.074;2023-04-30T10:45:46;2.80;;;2.30;;
10894;SDS011;5500;49.886;8.074;2023-04-30T10:48:14;3.13;;;2.53;;
10894;SDS011;5500;49.886;8.074;2023-04-30T10:50:50;4.73;;;2.80;;
10894;SDS011;5500;49.886;8.074;2023-04-30T10:53:18;3.10;;;2.53;;
10894;SDS011;5500;49.886;8.074;2023-04-30T10:55:52;3.80;;;2.40;;
10894;SDS011;5500;49.886;8.074;2023-04-30T10:58:24;4.57;;;3.00;;
10894;SDS011;5500;49.886;8.074;2023-04-30T11:01:01;2.77;;;2.57;;
10894;SDS011;5500;49.886;8.074;2023-04-30T11:03:34;3.13;;;2.83;;
10894;SDS011;5500;49.886;8.074;2023-04-30T11:06:09;3.43;;;2.30;;
10894;SDS011;5500;49.886;8.074;2023-04-30T11:08:38;4.20;;;2.53;;
10894;SDS011;5500;49.886;8.074;2023-04-30T11:11:07;2.83;;;2.20;;
10894;SDS011;5500;49.886;8.074;2023-04-30T11:13:38;2.80;;;2.60;;
10894;SDS011;5500;49.886;8.074;2023-04-30T11:16:08;2.90;;;2.60;;
10894;SDS011;5500;49.886;8.074;2023-04-30T11:18:40;3.17;;;2.57;;
10894;SDS011;5500;49.886;8.074;2023-04-30T11:21:08;4.13;;;2.97;;
10894;SDS011;5500;49.886;8.074;2023-04-30T11:23:39;5.13;;;2.40;;
10894;SDS011;5500;49.886;8.074;2023-04-30T11:26:08;2.57;;;2.33;;
10894;SDS011;5500;49.886;8.074;2023-04-30T11:28:36;3.03;;;2.33;;
10894;SDS011;5500;49.886;8.074;2023-04-30T11:31:04;3.00;;;2.63;;
10894;SDS011;5500;49.886;8.074;2023-04-30T11:33:33;3.37;;;2.20;;
10894;SDS011;5500;49.886;8.074;2023-04-30T11:36:01;2.60;;;2.23;;
10894;SDS011;5500;49.886;8.074;2023-04-30T11:38:30;2.77;;;2.33;;
10894;SDS011;5500;49.886;8.074;2023-04-30T11:41:00;2.50;;;2.30;;
10894;SDS011;5500;49.886;8.074;2023-04-30T11:43:28;2.53;;;2.33;;
10894;SDS011;5500;49.886;8.074;2023-04-30T11:45:59;2.87;;;2.20;;
10894;SDS011;5500;49.886;8.074;2023-04-30T11:48:30;2.40;;;2.17;;
10894;SDS011;5500;49.886;8.074;2023-04-30T11:51:00;3.43;;;2.10;;
10894;SDS011;5500;49.886;8.074;2023-04-30T11:53:29;3.23;;;2.20;;
10894;SDS011;5500;49.886;8.074;2023-04-30T11:56:01;3.87;;;2.13;;
10894;SDS011;5500;49.886;8.074;2023-04-30T11:58:32;2.43;;;2.23;;
10894;SDS011;5500;49.886;8.074;2023-04-30T12:01:00;2.20;;;2.00;;
10894;SDS011;5500;49.886;8.074;2023-04-30T12:03:28;2.80;;;2.53;;
10894;SDS011;5500;49.886;8.074;2023-04-30T12:05:56;2.37;;;2.17;;
10894;SDS011;5500;49.886;8.074;2023-04-30T12:08:25;2.40;;;2.00;;
10894;SDS011;5500;49.886;8.074;2023-04-30T12:10:53;2.30;;;2.10;;
10894;SDS011;5500;49.886;8.074;2023-04-30T12:13:21;2.13;;;1.93;;
10894;SDS011;5500;49.886;8.074;2023-04-30T12:15:58;2.00;;;1.83;;
10894;SDS011;5500;49.886;8.074;2023-04-30T12:18:26;3.33;;;2.23;;
10894;SDS011;5500;49.886;8.074;2023-04-30T12:20:54;3.03;;;2.40;;
10894;SDS011;5500;49.886;8.074;2023-04-30T12:23:22;2.20;;;2.00;;
10894;SDS011;5500;49.886;8.074;2023-04-30T12:25:51;2.60;;;2.17;;
10894;SDS011;5500;49.886;8.074;2023-04-30T12:28:18;2.27;;;2.00;;
10894;SDS011;5500;49.886;8.074;2023-04-30T12:30:46;2.77;;;2.37;;
10894;SDS011;5500;49.886;8.074;2023-04-30T12:33:15;2.43;;;2.23;;
10894;SDS011;5500;49.886;8.074;2023-04-30T12:35:44;3.83;;;2.23;;
10894;SDS011;5500;49.886;8.074;2023-04-30T12:38:14;2.27;;;1.93;;
10894;SDS011;5500;49.886;8.074;2023-04-30T12:40:45;4.13;;;2.03;;
10894;SDS011;5500;49.886;8.074;2023-04-30T12:43:15;2.07;;;1.47;;
10894;SDS011;5500;49.886;8.074;2023-04-30T12:45:44;3.50;;;1.70;;
10894;SDS011;5500;49.886;8.074;2023-04-30T12:48:13;2.27;;;1.83;;
10894;SDS011;5500;49.886;8.074;2023-04-30T12:50:46;1.53;;;1.43;;
10894;SDS011;5500;49.886;8.074;2023-04-30T12:53:14;1.80;;;1.53;;
10894;SDS011;5500;49.886;8.074;2023-04-30T12:55:41;2.23;;;1.40;;
10894;SDS011;5500;49.886;8.074;2023-04-30T12:58:09;1.90;;;1.63;;
10894;SDS011;5500;49.886;8.074;2023-04-30T13:00:44;1.80;;;1.70;;
10894;SDS011;5500;49.886;8.074;2023-04-30T13:03:15;2.00;;;1.67;;
10894;SDS011;5500;49.886;8.074;2023-04-30T13:05:46;2.30;;;1.90;;
10894;SDS011;5500;49.886;8.074;2023-04-30T13:08:16;2.43;;;1.50;;
10894;SDS011;5500;49.886;8.074;2023-04-30T13:10:44;2.07;;;1.60;;
10894;SDS011;5500;49.886;8.074;2023-04-30T13:13:12;2.27;;;1.50;;
10894;SDS011;5500;49.886;8.074;2023-04-30T13:15:41;1.67;;;1.50;;
10894;SDS011;5500;49.886;8.074;2023-04-30T13:18:10;1.57;;;1.47;;
10894;SDS011;5500;49.886;8.074;2023-04-30T13:20:40;1.90;;;1.70;;
10894;SDS011;5500;49.886;8.074;2023-04-30T13:23:09;2.13;;;1.60;;
10894;SDS011;5500;49.886;8.074;2023-04-30T13:25:37;2.43;;;1.70;;
10894;SDS011;5500;49.886;8.074;2023-04-30T13:28:05;1.43;;;1.33;;
10894;SDS011;5500;49.886;8.074;2023-04-30T13:30:33;1.40;;;1.10;;
10894;SDS011;5500;49.886;8.074;2023-04-30T13:33:01;1.53;;;1.43;;
10894;SDS011;5500;49.886;8.074;2023-04-30T13:35:30;1.60;;;1.50;;
10894;SDS011;5500;49.886;8.074;2023-04-30T13:37:58;2.17;;;1.27;;
10894;SDS011;5500;49.886;8.074;2023-04-30T13:40:26;1.40;;;1.30;;
10894;SDS011;5500;49.886;8.074;2023-04-30T13:42:54;1.37;;;1.00;;
10894;SDS011;5500;49.886;8.074;2023-04-30T13:45:22;1.13;;;1.03;;
10894;SDS011;5500;49.886;8.074;2023-04-30T13:47:49;3.43;;;1.30;;
10894;SDS011;5500;49.886;8.074;2023-04-30T13:50:17;2.63;;;1.20;;
10894;SDS011;5500;49.886;8.074;2023-04-30T13:52:47;1.93;;;1.40;;
10894;SDS011;5500;49.886;8.074;2023-04-30T13:55:14;2.07;;;1.37;;
10894;SDS011;5500;49.886;8.074;2023-04-30T13:57:42;3.17;;;1.00;;
10894;SDS011;5500;49.886;8.074;2023-04-30T14:00:10;1.40;;;1.17;;
10894;SDS011;5500;49.886;8.074;2023-04-30T14:02:38;1.30;;;1.20;;
10894;SDS011;5500;49.886;8.074;2023-04-30T14:05:07;1.37;;;1.27;;
10894;SDS011;5500;49.886;8.074;2023-04-30T14:07:35;1.47;;;1.13;;
10894;SDS011;5500;49.886;8.074;2023-04-30T14:10:06;1.47;;;1.10;;
10894;SDS011;5500;49.886;8.074;2023-04-30T14:12:34;1.17;;;1.10;;
10894;SDS011;5500;49.886;8.074;2023-04-30T14:15:03;3.40;;;0.90;;
10894;SDS011;5500;49.886;8.074;2023-04-30T14:17:31;1.53;;;1.10;;
10894;SDS011;5500;49.886;8.074;2023-04-30T14:19:59;1.23;;;1.00;;
10894;SDS011;5500;49.886;8.074;2023-04-30T14:22:27;1.00;;;1.00;;
10894;SDS011;5500;49.886;8.074;2023-04-30T14:24:55;1.30;;;1.20;;
10894;SDS011;5500;49.886;8.074;2023-04-30T14:27:24;1.10;;;1.10;;
10894;SDS011;5500;49.886;8.074;2023-04-30T14:29:52;1.10;;;1.00;;
10894;SDS011;5500;49.886;8.074;2023-04-30T14:32:20;1.43;;;1.00;;
10894;SDS011;5500;49.886;8.074;2023-04-30T14:34:47;1.03;;;0.90;;
10894;SDS011;5500;49.886;8.074;2023-04-30T14:37:15;1.43;;;0.90;;
10894;SDS011;5500;49.886;8.074;2023-04-30T14:39:43;2.50;;;0.97;;
10894;SDS011;5500;49.886;8.074;2023-04-30T14:42:11;1.77;;;1.00;;
10894;SDS011;5500;49.886;8.074;2023-04-30T14:44:40;1.03;;;1.03;;
10894;SDS011;5500;49.886;8.074;2023-04-30T14:47:08;2.00;;;1.00;;
10894;SDS011;5500;49.886;8.074;2023-04-30T14:49:35;0.80;;;0.80;;
10894;SDS011;5500;49.886;8.074;2023-04-30T14:52:03;0.77;;;0.77;;
10894;SDS011;5500;49.886;8.074;2023-04-30T14:54:31;1.60;;;0.80;;
10894;SDS011;5500;49.886;8.074;2023-04-30T14:56:59;1.00;;;0.87;;
10894;SDS011;5500;49.886;8.074;2023-04-30T14:59:26;1.40;;;1.13;;
10894;SDS011;5500;49.886;8.074;2023-04-30T15:01:55;0.70;;;0.70;;